createdAt,value
2023-05-03T00:01:11.391Z,15.80
2023-05-03T00:03:38.287Z,15.80
2023-05-03T00:06:15.868Z,15.70
2023-05-03T00:08:43.422Z,15.70
2023-05-03T00:11:10.487Z,15.60
2023-05-03T00:13:37.537Z,15.60
2023-05-03T00:16:04.593Z,15.60
2023-05-03T00:18:32.101Z,15.50
2023-05-03T00:20:59.813Z,15.50
2023-05-03T00:23:28.136Z,15.50
2023-05-03T00:25:56.766Z,15.50
2023-05-03T00:28:24.044Z,15.50
2023-05-03T00:30:51.184Z,15.40
2023-05-03T00:33:18.118Z,15.40
2023-05-03T00:35:45.322Z,15.20
2023-05-03T00:38:14.283Z,15.10
2023-05-03T00:40:41.238Z,15.10
2023-05-03T00:43:10.988Z,15.00
2023-05-03T00:45:38.026Z,15.10
2023-05-03T00:48:04.987Z,15.20
2023-05-03T00:50:31.795Z,15.20
2023-05-03T00:52:58.624Z,15.20
2023-05-03T00:55:27.312Z,15.30
2023-05-03T00:57:54.213Z,15.30
2023-05-03T01:00:22.293Z,15.40
2023-05-03T01:02:49.463Z,15.40
2023-05-03T01:05:17.331Z,15.40
2023-05-03T01:08:05.947Z,15.40
2023-05-03T01:10:39.608Z,15.40
2023-05-03T01:13:27.146Z,15.40
2023-05-03T01:16:12.969Z,15.30
2023-05-03T01:18:44.235Z,15.30
2023-05-03T01:21:13.701Z,15.30
2023-05-03T01:23:59.879Z,15.30
2023-05-03T01:26:28.275Z,15.30
2023-05-03T01:28:55.928Z,15.20
2023-05-03T01:31:34.930Z,15.20
2023-05-03T01:34:17.031Z,15.10
2023-05-03T01:36:45.256Z,14.80
2023-05-03T01:39:21.064Z,14.60
2023-05-03T01:41:51.283Z,14.60
2023-05-03T01:44:19.548Z,14.60
2023-05-03T01:46:46.646Z,14.60
2023-05-03T01:49:13.932Z,14.60
2023-05-03T01:51:40.792Z,14.70
2023-05-03T01:54:07.785Z,14.70
2023-05-03T01:56:36.903Z,14.80
2023-05-03T01:59:04.212Z,14.70
2023-05-03T02:01:32.221Z,14.60
2023-05-03T02:03:59.137Z,14.50
2023-05-03T02:06:26.334Z,14.40
2023-05-03T02:08:54.447Z,14.30
2023-05-03T02:11:21.669Z,14.30
2023-05-03T02:13:50.722Z,14.30
2023-05-03T02:16:18.508Z,14.40
2023-05-03T02:18:45.510Z,14.40
2023-05-03T02:21:13.148Z,14.40
2023-05-03T02:23:42.376Z,14.30
2023-05-03T02:26:09.168Z,14.40
2023-05-03T02:28:36.157Z,14.30
2023-05-03T02:31:03.165Z,14.30
2023-05-03T02:33:30.054Z,14.40
2023-05-03T02:35:56.940Z,14.50
2023-05-03T02:38:23.835Z,14.50
2023-05-03T02:40:50.823Z,14.50
2023-05-03T02:43:17.599Z,14.50
2023-05-03T02:45:44.552Z,14.60
2023-05-03T02:48:11.367Z,14.60
2023-05-03T02:50:39.600Z,14.70
2023-05-03T02:53:06.981Z,14.70
2023-05-03T02:55:33.752Z,14.50
2023-05-03T02:58:01.105Z,14.40
2023-05-03T03:00:28.119Z,14.30
2023-05-03T03:02:54.931Z,14.30
2023-05-03T03:05:21.780Z,14.40
2023-05-03T03:07:49.312Z,14.30
2023-05-03T03:10:16.200Z,14.30
2023-05-03T03:12:44.021Z,14.30
2023-05-03T03:15:11.270Z,14.20
2023-05-03T03:17:39.493Z,14.20
2023-05-03T03:20:07.896Z,14.20
2023-05-03T03:22:34.646Z,14.20
2023-05-03T03:25:01.395Z,14.30
2023-05-03T03:27:39.091Z,14.40
2023-05-03T03:30:08.220Z,14.40
2023-05-03T03:32:35.470Z,14.40
2023-05-03T03:35:02.270Z,14.40
2023-05-03T03:37:29.114Z,14.40
2023-05-03T03:39:56.470Z,14.40
2023-05-03T03:42:25.763Z,14.40
2023-05-03T03:44:52.618Z,14.40
2023-05-03T03:47:19.537Z,14.40
2023-05-03T03:49:46.353Z,14.40
2023-05-03T03:52:13.119Z,14.40
2023-05-03T03:54:39.882Z,14.20
2023-05-03T03:57:06.800Z,14.30
2023-05-03T03:59:33.566Z,14.30
2023-05-03T04:02:00.375Z,14.20
2023-05-03T04:04:27.222Z,14.10
2023-05-03T04:06:54.074Z,14.00
2023-05-03T04:09:21.583Z,14.00
2023-05-03T04:11:48.927Z,14.00
2023-05-03T04:14:15.769Z,14.00
2023-05-03T04:16:42.581Z,13.80
2023-05-03T04:19:09.549Z,13.90
2023-05-03T04:21:36.387Z,14.00
2023-05-03T04:24:05.982Z,13.90
2023-05-03T04:26:33.766Z,14.00
2023-05-03T04:29:00.593Z,13.90
2023-05-03T04:31:28.630Z,13.90
2023-05-03T04:33:55.522Z,13.90
2023-05-03T04:36:25.596Z,13.90
2023-05-03T04:38:52.795Z,13.90
2023-05-03T04:41:19.783Z,13.90
2023-05-03T04:43:46.700Z,14.00
2023-05-03T04:46:13.803Z,14.10
2023-05-03T04:48:40.667Z,14.10
2023-05-03T04:51:07.747Z,14.10
2023-05-03T04:53:34.714Z,14.10
2023-05-03T04:56:01.663Z,14.10
2023-05-03T04:58:28.421Z,14.10
2023-05-03T05:00:55.646Z,14.10
2023-05-03T05:03:22.541Z,14.10
2023-05-03T05:05:49.395Z,14.10
2023-05-03T05:08:16.165Z,14.10
2023-05-03T05:10:43.360Z,13.90
2023-05-03T05:13:10.317Z,14.00
2023-05-03T05:15:37.296Z,14.10
2023-05-03T05:18:04.299Z,14.00
2023-05-03T05:20:31.382Z,13.90
2023-05-03T05:22:58.301Z,13.70
2023-05-03T05:25:25.109Z,13.60
2023-05-03T05:27:51.887Z,13.70
2023-05-03T05:30:19.353Z,13.80
2023-05-03T05:32:46.468Z,13.80
2023-05-03T05:35:13.382Z,13.80
2023-05-03T05:37:40.190Z,13.90
2023-05-03T05:40:07.872Z,14.00
2023-05-03T05:42:34.970Z,14.00
2023-05-03T05:45:01.984Z,14.00
2023-05-03T05:47:28.834Z,13.90
2023-05-03T05:49:55.657Z,13.80
2023-05-03T05:52:22.454Z,13.80
2023-05-03T05:54:49.222Z,13.90
2023-05-03T05:57:16.002Z,13.90
2023-05-03T05:59:42.832Z,13.90
2023-05-03T06:02:14.929Z,13.90
2023-05-03T06:04:41.691Z,14.00
2023-05-03T06:07:08.666Z,14.00
2023-05-03T06:09:35.404Z,14.00
2023-05-03T06:12:02.935Z,13.90
2023-05-03T06:14:29.744Z,13.90
2023-05-03T06:16:56.777Z,14.00
2023-05-03T06:19:24.789Z,14.00
2023-05-03T06:21:51.683Z,14.00
2023-05-03T06:24:21.275Z,14.00
2023-05-03T06:26:48.692Z,13.90
2023-05-03T06:29:16.437Z,13.90
2023-05-03T06:31:43.400Z,13.80
2023-05-03T06:34:10.608Z,13.70
2023-05-03T06:36:37.941Z,13.80
2023-05-03T06:39:05.232Z,13.90
2023-05-03T06:41:34.049Z,14.00
2023-05-03T06:44:00.825Z,14.00
2023-05-03T06:46:28.565Z,14.00
2023-05-03T06:48:58.404Z,14.00
2023-05-03T06:51:30.224Z,14.00
2023-05-03T06:54:00.625Z,14.10
2023-05-03T06:56:27.591Z,14.10
2023-05-03T06:58:54.465Z,14.10
2023-05-03T07:01:21.633Z,14.10
2023-05-03T07:03:48.527Z,14.20
2023-05-03T07:06:16.742Z,14.20
2023-05-03T07:08:43.889Z,14.20
2023-05-03T07:11:10.954Z,14.10
2023-05-03T07:13:37.804Z,14.10
2023-05-03T07:16:05.344Z,14.10
2023-05-03T07:18:32.101Z,14.10
2023-05-03T07:20:59.827Z,14.20
2023-05-03T07:23:26.809Z,14.30
2023-05-03T07:25:54.099Z,14.40
2023-05-03T07:28:20.950Z,14.40
2023-05-03T07:30:48.162Z,14.40
2023-05-03T07:33:15.176Z,14.30
2023-05-03T07:35:42.082Z,14.40
2023-05-03T07:38:08.984Z,14.50
2023-05-03T07:40:35.808Z,14.50
2023-05-03T07:43:03.159Z,14.40
2023-05-03T07:45:30.012Z,14.50
2023-05-03T07:47:57.049Z,14.70
2023-05-03T07:50:23.949Z,14.70
2023-05-03T07:52:51.823Z,14.80
2023-05-03T07:55:20.128Z,14.80
2023-05-03T07:57:47.109Z,14.80
2023-05-03T08:00:14.963Z,14.80
2023-05-03T08:02:42.173Z,14.80
2023-05-03T08:05:11.623Z,14.80
2023-05-03T08:07:38.534Z,14.80
2023-05-03T08:10:06.309Z,14.90
2023-05-03T08:12:33.301Z,15.00
2023-05-03T08:15:00.068Z,15.10
2023-05-03T08:17:27.233Z,15.10
2023-05-03T08:19:56.646Z,15.20
2023-05-03T08:22:26.557Z,15.20
2023-05-03T08:24:53.773Z,15.20
2023-05-03T08:27:20.628Z,15.30
2023-05-03T08:29:47.408Z,15.30
2023-05-03T08:32:14.294Z,15.40
2023-05-03T08:34:41.497Z,15.40
2023-05-03T08:37:08.269Z,15.30
2023-05-03T08:39:35.063Z,15.40
2023-05-03T08:42:07.663Z,15.40
2023-05-03T08:44:38.363Z,15.40
2023-05-03T08:47:06.450Z,15.30
2023-05-03T08:49:35.500Z,15.20
2023-05-03T08:52:02.880Z,15.10
2023-05-03T08:54:30.025Z,15.10
2023-05-03T08:56:56.818Z,15.20
2023-05-03T08:59:24.633Z,15.30
2023-05-03T09:01:53.584Z,15.30
2023-05-03T09:04:31.968Z,15.40
2023-05-03T09:07:09.155Z,15.40
2023-05-03T09:09:36.645Z,15.40
2023-05-03T09:12:07.212Z,15.30
2023-05-03T09:14:46.623Z,15.30
2023-05-03T09:17:17.882Z,15.30
2023-05-03T09:19:58.683Z,15.20
2023-05-03T09:22:31.028Z,15.30
2023-05-03T09:25:00.085Z,15.30
2023-05-03T09:27:27.825Z,15.40
2023-05-03T09:29:55.402Z,15.50
2023-05-03T09:32:25.787Z,15.60
2023-05-03T09:35:10.356Z,15.70
2023-05-03T09:37:40.372Z,15.70
2023-05-03T09:40:08.530Z,15.70
2023-05-03T09:42:35.398Z,15.70
2023-05-03T09:45:02.328Z,15.70
2023-05-03T09:47:32.178Z,15.80
2023-05-03T09:50:00.182Z,15.90
2023-05-03T09:52:30.575Z,15.80
2023-05-03T09:54:58.083Z,15.80
2023-05-03T09:57:25.892Z,15.80
2023-05-03T09:59:53.311Z,15.60
2023-05-03T10:02:21.803Z,15.60
2023-05-03T10:04:57.111Z,15.70
2023-05-03T10:07:28.356Z,15.80
2023-05-03T10:09:58.164Z,15.90
2023-05-03T10:12:27.328Z,15.80
2023-05-03T10:14:56.176Z,15.80
2023-05-03T10:17:46.158Z,15.80
2023-05-03T10:20:33.145Z,15.80
2023-05-03T10:23:06.486Z,15.80
2023-05-03T10:25:35.910Z,15.80
2023-05-03T10:28:04.263Z,15.90
2023-05-03T10:30:33.093Z,15.90
2023-05-03T10:33:20.285Z,15.90
2023-05-03T10:35:54.473Z,15.70
2023-05-03T10:38:25.927Z,15.70
2023-05-03T10:40:55.191Z,15.60
2023-05-03T10:43:31.381Z,15.60
2023-05-03T10:46:02.756Z,15.50
2023-05-03T10:48:31.045Z,15.60
2023-05-03T10:51:18.832Z,15.70
2023-05-03T10:53:45.602Z,15.90
2023-05-03T10:56:13.989Z,16.00
2023-05-03T10:58:50.098Z,16.00
2023-05-03T11:01:18.773Z,16.10
2023-05-03T11:04:13.794Z,16.10
2023-05-03T11:06:41.376Z,16.10
2023-05-03T11:09:09.833Z,16.10
2023-05-03T11:11:39.575Z,16.00
2023-05-03T11:14:08.381Z,16.00
2023-05-03T11:16:37.025Z,16.10
2023-05-03T11:19:04.174Z,16.00
2023-05-03T11:21:31.481Z,16.10
2023-05-03T11:23:59.533Z,16.10
2023-05-03T11:26:26.810Z,16.10
2023-05-03T11:28:54.579Z,16.10
2023-05-03T11:31:22.515Z,16.20
2023-05-03T11:33:50.868Z,16.20
2023-05-03T11:36:17.942Z,16.20
2023-05-03T11:38:45.777Z,16.10
2023-05-03T11:41:14.666Z,16.20
2023-05-03T11:43:43.362Z,16.30
2023-05-03T11:46:11.422Z,16.40
2023-05-03T11:48:38.972Z,16.50
2023-05-03T11:51:11.379Z,16.60
2023-05-03T11:53:40.026Z,16.60
2023-05-03T11:56:14.189Z,16.70
2023-05-03T11:59:10.864Z,16.60
2023-05-03T12:01:37.838Z,16.60
2023-05-03T12:04:05.822Z,16.70
2023-05-03T12:06:36.060Z,16.70
2023-05-03T12:09:05.411Z,16.70
2023-05-03T12:11:44.201Z,16.60
2023-05-03T12:14:11.916Z,16.70
2023-05-03T12:16:51.174Z,16.60
2023-05-03T12:19:32.045Z,16.60
2023-05-03T12:22:22.964Z,16.80
2023-05-03T12:24:49.456Z,16.90
2023-05-03T12:27:19.060Z,16.90
2023-05-03T12:29:47.546Z,16.90
2023-05-03T12:32:15.162Z,17.00
2023-05-03T12:34:42.796Z,16.90
2023-05-03T12:37:11.710Z,16.90
2023-05-03T12:39:40.345Z,17.00
2023-05-03T12:42:09.323Z,17.00
2023-05-03T12:44:41.792Z,17.00
2023-05-03T12:47:10.053Z,17.10
2023-05-03T12:49:39.040Z,17.10
2023-05-03T12:52:35.307Z,17.10
2023-05-03T12:54:55.700Z,17.10
2023-05-03T12:57:24.357Z,17.30
2023-05-03T12:59:53.941Z,17.40
2023-05-03T13:04:59.967Z,17.70
2023-05-03T13:07:42.968Z,17.70
2023-05-03T13:12:40.868Z,17.90
2023-05-03T13:15:08.636Z,18.00
2023-05-03T13:17:35.689Z,18.00
2023-05-03T13:20:02.494Z,17.90
2023-05-03T13:22:31.966Z,17.90
2023-05-03T13:24:58.724Z,17.90
2023-05-03T13:27:25.761Z,17.80
2023-05-03T13:29:52.628Z,17.80
2023-05-03T13:32:19.566Z,17.70
2023-05-03T13:34:48.824Z,17.80
2023-05-03T13:37:18.607Z,17.80
2023-05-03T13:39:46.566Z,17.80
2023-05-03T13:42:13.381Z,17.90
2023-05-03T13:44:40.942Z,17.80
2023-05-03T13:47:07.844Z,17.70
2023-05-03T13:49:35.245Z,17.70
2023-05-03T13:52:02.009Z,17.80
2023-05-03T13:54:30.105Z,17.80
2023-05-03T13:56:58.405Z,17.70
2023-05-03T13:59:25.255Z,17.60
2023-05-03T14:01:52.134Z,17.60
2023-05-03T14:04:19.949Z,17.60
2023-05-03T14:06:46.935Z,17.50
2023-05-03T14:09:13.991Z,17.60
2023-05-03T14:11:41.316Z,17.60
2023-05-03T14:14:08.270Z,17.60
2023-05-03T14:16:41.543Z,17.70
2023-05-03T14:19:14.198Z,17.50
2023-05-03T14:21:45.324Z,17.60
2023-05-03T14:24:12.480Z,17.60
2023-05-03T14:26:39.324Z,17.70
2023-05-03T14:29:06.307Z,17.70
2023-05-03T14:31:34.218Z,17.80
2023-05-03T14:34:01.282Z,17.80
2023-05-03T14:36:35.943Z,17.80
2023-05-03T14:39:04.226Z,17.80
2023-05-03T14:41:33.161Z,17.70
2023-05-03T14:44:00.111Z,17.70
2023-05-03T14:46:27.054Z,17.80
2023-05-03T14:48:53.942Z,17.80
2023-05-03T14:51:21.244Z,17.90
2023-05-03T14:53:48.050Z,17.90
2023-05-03T14:56:14.906Z,17.80
2023-05-03T14:58:41.770Z,17.80
2023-05-03T15:01:08.596Z,17.80
2023-05-03T15:03:35.577Z,17.80
2023-05-03T15:06:02.562Z,17.70
2023-05-03T15:08:29.890Z,17.70
2023-05-03T15:10:59.207Z,17.70
2023-05-03T15:13:26.463Z,17.60
2023-05-03T15:15:53.472Z,17.60
2023-05-03T15:18:20.417Z,17.60
2023-05-03T15:20:47.830Z,17.70
2023-05-03T15:23:14.716Z,17.70
2023-05-03T15:25:41.609Z,17.70
2023-05-03T15:28:08.436Z,17.70
2023-05-03T15:30:35.320Z,17.70
2023-05-03T15:33:02.350Z,17.80
2023-05-03T15:35:29.173Z,17.80
2023-05-03T15:37:56.250Z,17.70
2023-05-03T15:40:26.129Z,17.70
2023-05-03T15:42:53.878Z,17.70
2023-05-03T15:45:23.370Z,17.60
2023-05-03T15:47:50.427Z,17.60
2023-05-03T15:50:17.654Z,17.60
2023-05-03T15:52:46.748Z,17.60
2023-05-03T15:55:13.619Z,17.60
2023-05-03T15:57:41.327Z,17.50
2023-05-03T16:00:15.292Z,17.50
2023-05-03T16:02:42.583Z,17.40
2023-05-03T16:05:11.191Z,17.30
2023-05-03T16:07:38.017Z,17.30
2023-05-03T16:10:05.593Z,17.30
2023-05-03T16:12:32.679Z,17.30
2023-05-03T16:14:59.500Z,17.30
2023-05-03T16:17:26.408Z,17.40
2023-05-03T16:19:53.199Z,17.40
2023-05-03T16:22:20.062Z,17.40
2023-05-03T16:24:47.494Z,17.40
2023-05-03T16:27:14.353Z,17.50
2023-05-03T16:29:41.161Z,17.50
2023-05-03T16:32:09.924Z,17.50
2023-05-03T16:34:37.767Z,17.50
2023-05-03T16:37:04.756Z,17.50
2023-05-03T16:39:32.467Z,17.50
2023-05-03T16:41:59.307Z,17.50
2023-05-03T16:44:26.157Z,17.50
2023-05-03T16:46:53.331Z,17.60
2023-05-03T16:49:20.488Z,17.50
2023-05-03T16:51:47.309Z,17.50
2023-05-03T16:54:16.623Z,17.50
2023-05-03T16:56:44.016Z,17.50
2023-05-03T16:59:10.912Z,17.60
2023-05-03T17:01:37.946Z,17.50
2023-05-03T17:04:06.492Z,17.60
2023-05-03T17:06:33.717Z,17.60
2023-05-03T17:09:01.003Z,17.60
2023-05-03T17:11:27.966Z,17.50
2023-05-03T17:13:54.740Z,17.60
2023-05-03T17:16:22.780Z,17.50
2023-05-03T17:18:50.111Z,17.50
2023-05-03T17:21:17.588Z,17.50
2023-05-03T17:23:45.998Z,17.50
2023-05-03T17:26:13.524Z,17.50
2023-05-03T17:28:40.699Z,17.40
2023-05-03T17:31:07.621Z,17.40
2023-05-03T17:33:35.214Z,17.40
2023-05-03T17:36:05.197Z,17.40
2023-05-03T17:38:33.856Z,17.40
2023-05-03T17:41:08.289Z,17.30
2023-05-03T17:43:35.955Z,17.30
2023-05-03T17:46:14.562Z,17.30
2023-05-03T17:48:43.928Z,17.30
2023-05-03T17:51:13.416Z,17.30
2023-05-03T17:53:42.558Z,17.30
2023-05-03T17:56:16.129Z,17.20
2023-05-03T17:58:43.763Z,17.20
2023-05-03T18:01:11.144Z,17.20
2023-05-03T18:03:38.277Z,17.20
2023-05-03T18:06:08.417Z,17.10
2023-05-03T18:08:35.326Z,17.20
2023-05-03T18:11:02.346Z,17.10
2023-05-03T18:13:29.656Z,17.10
2023-05-03T18:15:56.497Z,17.10
2023-05-03T18:18:23.295Z,17.00
2023-05-03T18:21:00.577Z,17.00
2023-05-03T18:23:27.442Z,17.00
2023-05-03T18:25:54.599Z,16.90
2023-05-03T18:28:22.916Z,16.90
2023-05-03T18:30:53.055Z,16.80
2023-05-03T18:33:19.973Z,16.80
2023-05-03T18:35:51.009Z,16.70
2023-05-03T18:38:19.160Z,16.70
2023-05-03T18:40:46.971Z,16.60
2023-05-03T18:43:14.023Z,16.60
2023-05-03T18:45:41.057Z,16.50
2023-05-03T18:48:08.312Z,16.50
2023-05-03T18:50:39.657Z,16.40
2023-05-03T18:53:06.788Z,16.40
2023-05-03T18:55:33.625Z,16.40
2023-05-03T18:58:00.692Z,16.30
2023-05-03T19:00:27.868Z,16.30
2023-05-03T19:02:54.755Z,16.20
2023-05-03T19:05:21.664Z,16.20
2023-05-03T19:07:48.978Z,16.10
2023-05-03T19:10:17.123Z,16.10
2023-05-03T19:12:44.619Z,16.00
2023-05-03T19:15:11.891Z,16.00
2023-05-03T19:17:42.158Z,16.00
2023-05-03T19:20:12.985Z,15.90
2023-05-03T19:22:40.561Z,15.80
2023-05-03T19:25:08.036Z,15.70
2023-05-03T19:27:35.042Z,15.60
2023-05-03T19:30:02.376Z,15.40
2023-05-03T19:32:30.269Z,15.30
2023-05-03T19:34:57.757Z,15.20
2023-05-03T19:37:25.254Z,15.10
2023-05-03T19:39:52.851Z,15.10
2023-05-03T19:42:22.860Z,14.90
2023-05-03T19:44:50.249Z,14.90
2023-05-03T19:47:17.931Z,14.80
2023-05-03T19:49:45.336Z,14.80
2023-05-03T19:52:12.109Z,14.80
2023-05-03T19:54:38.971Z,14.70
2023-05-03T19:57:06.638Z,14.70
2023-05-03T19:59:33.959Z,14.60
2023-05-03T20:02:00.960Z,14.60
2023-05-03T20:04:28.301Z,14.60
2023-05-03T20:06:55.170Z,14.50
2023-05-03T20:09:23.429Z,14.50
2023-05-03T20:11:56.059Z,14.40
2023-05-03T20:14:22.821Z,14.40
2023-05-03T20:16:49.576Z,14.30
2023-05-03T20:19:16.948Z,14.20
2023-05-03T20:21:44.924Z,14.20
2023-05-03T20:24:11.701Z,14.20
2023-05-03T20:26:38.683Z,14.20
2023-05-03T20:29:05.760Z,14.20
2023-05-03T20:31:33.079Z,14.20
2023-05-03T20:34:00.595Z,14.10
2023-05-03T20:36:28.059Z,14.00
2023-05-03T20:38:55.273Z,14.00
2023-05-03T20:41:23.104Z,13.90
2023-05-03T20:43:52.306Z,13.90
2023-05-03T20:46:19.336Z,13.80
2023-05-03T20:48:46.291Z,13.70
2023-05-03T20:51:16.254Z,13.80
2023-05-03T20:53:43.171Z,13.80
2023-05-03T20:56:10.041Z,13.80
2023-05-03T20:58:36.920Z,13.70
2023-05-03T21:01:04.476Z,13.70
2023-05-03T21:03:31.909Z,13.60
2023-05-03T21:05:59.114Z,13.50
2023-05-03T21:08:26.171Z,13.40
2023-05-03T21:10:53.922Z,13.30
2023-05-03T21:13:20.855Z,13.30
2023-05-03T21:15:47.639Z,13.40
2023-05-03T21:18:14.445Z,13.40
2023-05-03T21:20:41.243Z,13.40
2023-05-03T21:23:08.066Z,13.40
2023-05-03T21:25:34.945Z,13.30
2023-05-03T21:28:02.348Z,13.30
2023-05-03T21:30:29.273Z,13.20
2023-05-03T21:32:56.080Z,13.10
2023-05-03T21:35:25.392Z,13.00
2023-05-03T21:37:52.208Z,13.00
2023-05-03T21:40:21.327Z,13.00
2023-05-03T21:42:50.092Z,12.90
2023-05-03T21:45:17.484Z,12.80
2023-05-03T21:47:44.574Z,12.80
2023-05-03T21:50:12.320Z,12.80
2023-05-03T21:52:39.219Z,12.70
2023-05-03T21:55:06.541Z,12.70
2023-05-03T21:57:33.354Z,12.60
2023-05-03T22:00:00.132Z,12.50
2023-05-03T22:02:27.124Z,12.50
2023-05-03T22:04:54.079Z,12.50
2023-05-03T22:07:20.935Z,12.50
2023-05-03T22:09:48.571Z,12.50
2023-05-03T22:14:46.207Z,12.50
2023-05-03T22:17:13.598Z,12.40
2023-05-03T22:19:40.426Z,12.40
2023-05-03T22:22:07.349Z,12.40
2023-05-03T22:24:34.136Z,12.40
2023-05-03T22:27:00.979Z,12.30
2023-05-03T22:29:27.804Z,12.30
2023-05-03T22:31:54.732Z,12.30
2023-05-03T22:34:21.776Z,12.20
2023-05-03T22:36:48.560Z,12.20
2023-05-03T22:39:15.830Z,12.10
2023-05-03T22:41:42.690Z,12.20
2023-05-03T22:44:09.459Z,12.20
2023-05-03T22:46:36.331Z,12.10
2023-05-03T22:49:03.990Z,12.10
2023-05-03T22:51:31.867Z,12.00
2023-05-03T22:53:58.733Z,12.00
2023-05-03T22:56:25.539Z,12.00
2023-05-03T22:58:52.359Z,12.00
2023-05-03T23:01:20.023Z,12.00
2023-05-03T23:03:46.992Z,11.90
2023-05-03T23:06:14.503Z,11.80
2023-05-03T23:08:41.299Z,11.80
2023-05-03T23:11:08.313Z,11.70
2023-05-03T23:13:35.617Z,11.80
2023-05-03T23:16:02.514Z,11.70
2023-05-03T23:18:29.307Z,11.70
2023-05-03T23:20:56.054Z,11.60
2023-05-03T23:23:22.867Z,11.60
2023-05-03T23:25:49.640Z,11.50
2023-05-03T23:28:16.410Z,11.50
2023-05-03T23:30:44.501Z,11.40
2023-05-03T23:33:11.862Z,11.40
2023-05-03T23:35:40.400Z,11.30
2023-05-03T23:38:07.222Z,11.20
2023-05-03T23:40:34.029Z,11.20
2023-05-03T23:43:00.896Z,11.30
2023-05-03T23:45:27.676Z,11.40
2023-05-03T23:47:54.549Z,11.30
2023-05-03T23:50:21.535Z,11.40
2023-05-03T23:52:48.318Z,11.40
2023-05-03T23:55:15.204Z,11.40
2023-05-03T23:57:41.985Z,11.30
